createdAt,value
2019-01-06T00:01:36.388Z,22.1
2019-01-06T00:06:42.191Z,22.1
2019-01-06T00:11:47.463Z,22.1
2019-01-06T00:16:53.544Z,22.1
2019-01-06T00:21:58.701Z,22.1
2019-01-06T00:27:04.417Z,22.1
2019-01-06T00:32:10.080Z,22.1
2019-01-06T00:37:18.739Z,22
2019-01-06T00:42:24.284Z,22
2019-01-06T00:47:29.236Z,22
2019-01-06T00:52:34.568Z,22
2019-01-06T00:57:39.574Z,22
2019-01-06T01:02:44.717Z,22
2019-01-06T01:07:50.676Z,22
2019-01-06T01:12:55.904Z,22
2019-01-06T01:18:02.120Z,22
2019-01-06T01:23:08.183Z,22
2019-01-06T01:28:14.748Z,22
2019-01-06T01:33:20.373Z,21.9
2019-01-06T01:38:25.480Z,21.9
2019-01-06T01:43:30.879Z,21.9
2019-01-06T01:48:36.556Z,21.9
2019-01-06T01:53:42.099Z,21.9
2019-01-06T01:58:47.533Z,21.9
2019-01-06T02:03:53.048Z,21.9
2019-01-06T02:08:58.522Z,21.9
2019-01-06T02:14:04.266Z,21.8
2019-01-06T02:19:09.866Z,21.8
2019-01-06T02:24:15.642Z,21.8
2019-01-06T02:29:21.551Z,21.8
2019-01-06T02:39:31.100Z,21.8
2019-01-06T02:44:36.045Z,21.8
2019-01-06T02:49:41.636Z,21.8
2019-01-06T02:54:47.227Z,21.8
2019-01-06T02:59:53.443Z,21.7
2019-01-06T03:04:58.943Z,21.7
2019-01-06T03:10:04.491Z,21.7
2019-01-06T03:15:10.176Z,21.7
2019-01-06T03:20:16.108Z,21.7
2019-01-06T03:25:21.782Z,21.7
2019-01-06T03:30:27.392Z,21.7
2019-01-06T03:35:32.232Z,21.7
2019-01-06T03:40:37.599Z,21.6
2019-01-06T03:45:42.537Z,21.6
2019-01-06T03:50:48.036Z,21.6
2019-01-06T03:55:53.977Z,21.6
2019-01-06T04:00:59.784Z,21.6
2019-01-06T04:06:04.251Z,21.6
2019-01-06T04:11:17.115Z,21.6
2019-01-06T04:16:12.734Z,21.6
2019-01-06T04:21:19.429Z,21.5
2019-01-06T04:26:25.003Z,21.5
2019-01-06T04:31:30.897Z,21.6
2019-01-06T04:36:35.855Z,21.6
2019-01-06T04:41:41.272Z,21.5
2019-01-06T04:46:47.117Z,21.5
2019-01-06T04:51:52.174Z,21.5
2019-01-06T04:56:59.513Z,21.5
2019-01-06T05:02:05.466Z,21.5
2019-01-06T05:07:10.542Z,21.5
2019-01-06T05:12:16.855Z,21.5
2019-01-06T05:17:22.173Z,21.5
2019-01-06T05:27:32.139Z,22
2019-01-06T05:32:38.271Z,22.3
2019-01-06T05:37:43.890Z,22.6
2019-01-06T05:42:49.410Z,22.7
2019-01-06T05:47:55.224Z,23
2019-01-06T05:53:00.396Z,23
2019-01-06T05:58:06.057Z,23
2019-01-06T06:03:11.120Z,23
2019-01-06T06:08:16.454Z,22.9
2019-01-06T06:13:22.054Z,22.9
2019-01-06T06:18:27.293Z,22.9
2019-01-06T06:23:32.642Z,22.9
2019-01-06T06:28:38.058Z,22.9
2019-01-06T06:33:44.013Z,22.9
2019-01-06T06:38:49.510Z,22.8
2019-01-06T06:43:55.271Z,22.8
2019-01-06T06:49:01.153Z,22.8
2019-01-06T06:54:06.911Z,22.8
2019-01-06T06:59:12.908Z,22.9
2019-01-06T07:04:18.910Z,22.8
2019-01-06T07:09:23.963Z,22.9
2019-01-06T07:14:30.136Z,23
2019-01-06T07:19:35.540Z,23
2019-01-06T07:24:41.457Z,23.1
2019-01-06T07:29:46.907Z,23.2
2019-01-06T07:34:52.296Z,23.2
2019-01-06T07:39:57.212Z,23.6
2019-01-06T07:45:03.033Z,23.5
2019-01-06T07:50:08.800Z,23.3
2019-01-06T07:55:14.068Z,23.2
2019-01-06T08:00:19.439Z,23.1
2019-01-06T08:05:22.329Z,23.5
2019-01-06T08:10:27.680Z,22.9
2019-01-06T08:15:32.855Z,23
2019-01-06T08:20:38.272Z,22.9
2019-01-06T08:25:43.459Z,22.9
2019-01-06T08:30:49.242Z,22.8
2019-01-06T08:35:54.227Z,22.8
2019-01-06T08:40:59.860Z,22.8
2019-01-06T08:46:05.021Z,22.7
2019-01-06T08:56:17.270Z,22.8
2019-01-06T09:01:22.148Z,22.8
2019-01-06T09:06:27.479Z,22.7
2019-01-06T09:11:32.367Z,22.7
2019-01-06T09:16:37.498Z,22.8
2019-01-06T09:21:42.465Z,22.8
2019-01-06T09:26:48.646Z,22.8
2019-01-06T09:32:02.071Z,22.8
2019-01-06T09:36:57.326Z,22.9
2019-01-06T09:42:02.579Z,22.9
2019-01-06T09:47:10.057Z,22.9
2019-01-06T09:52:15.016Z,22.9
2019-01-06T09:57:20.448Z,22.9
2019-01-06T10:02:25.512Z,22.9
2019-01-06T10:07:30.872Z,22.9
2019-01-06T10:12:35.696Z,22.9
2019-01-06T10:17:40.621Z,22.9
2019-01-06T10:22:46.335Z,22.9
2019-01-06T10:27:52.620Z,22.9
2019-01-06T10:32:58.616Z,22.9
2019-01-06T10:38:04.419Z,22.9
2019-01-06T10:43:10.393Z,23
2019-01-06T10:48:15.422Z,23
2019-01-06T10:53:20.666Z,23
2019-01-06T10:58:25.728Z,23
2019-01-06T11:03:30.552Z,23
2019-01-06T11:08:35.925Z,23
2019-01-06T11:13:41.373Z,23
2019-01-06T11:18:47.193Z,23
2019-01-06T11:23:52.321Z,23
2019-01-06T11:28:57.585Z,22.9
2019-01-06T11:34:01.122Z,23
2019-01-06T11:39:04.966Z,22.9
2019-01-06T11:44:09.989Z,22.9
2019-01-06T11:49:15.791Z,22.7
2019-01-06T11:54:21.417Z,22.2
2019-01-06T11:59:27.317Z,22.3
2019-01-06T12:04:31.489Z,22.6
2019-01-06T12:09:37.198Z,22.8
2019-01-06T12:14:42.140Z,23
2019-01-06T12:19:48.224Z,23
2019-01-06T12:24:53.702Z,23.1
2019-01-06T12:29:58.804Z,23
2019-01-06T12:35:03.747Z,23
2019-01-06T12:45:12.933Z,23
2019-01-06T12:50:16.879Z,23
2019-01-06T12:55:22.511Z,22.9
2019-01-06T13:00:27.688Z,22.9
2019-01-06T13:10:39.240Z,22.7
2019-01-06T13:15:44.307Z,22.8
2019-01-06T13:20:50.334Z,22.7
2019-01-06T13:25:56.340Z,22.8
2019-01-06T13:31:03.422Z,22.8
2019-01-06T13:36:08.909Z,22.8
2019-01-06T13:46:18.611Z,22.8
2019-01-06T13:51:24.367Z,22.8
2019-01-06T13:56:29.434Z,22.8
2019-01-06T14:01:34.892Z,22.9
2019-01-06T14:11:44.528Z,22.9
2019-01-06T14:16:49.730Z,22.9
2019-01-06T14:21:54.989Z,22.9
2019-01-06T14:27:00.524Z,22.9
2019-01-06T14:32:06.243Z,22.9
2019-01-06T14:37:11.358Z,22.9
2019-01-06T14:42:17.037Z,22.9
2019-01-06T14:47:22.134Z,22.9
2019-01-06T14:52:27.440Z,23
2019-01-06T14:57:33.082Z,22.9
2019-01-06T15:02:38.920Z,22.9
2019-01-06T15:07:44.012Z,22.9
2019-01-06T15:12:49.017Z,22.9
2019-01-06T15:17:54.087Z,22.9
2019-01-06T15:22:59.419Z,22.9
2019-01-06T15:28:04.668Z,22.9
2019-01-06T15:33:09.779Z,22.9
2019-01-06T15:38:15.210Z,23
2019-01-06T15:43:21.508Z,22.9
2019-01-06T15:48:26.577Z,22.9
2019-01-06T15:53:31.982Z,22.9
2019-01-06T15:58:37.622Z,22.9
2019-01-06T16:13:51.084Z,22.8
2019-01-06T16:18:56.144Z,22.8
2019-01-06T16:29:07.311Z,22.8
2019-01-06T16:44:20.826Z,22.7
2019-01-06T16:49:26.422Z,22.7
2019-01-06T16:54:31.504Z,22.6
2019-01-06T16:59:36.513Z,22.6
2019-01-06T17:09:46.992Z,22.6
2019-01-06T17:14:52.664Z,22.6
2019-01-06T17:19:57.714Z,22.6
2019-01-06T17:25:03.422Z,22.7
2019-01-06T17:30:08.851Z,22.6
2019-01-06T17:40:18.852Z,22.7
2019-01-06T17:50:27.880Z,22.7
2019-01-06T18:05:42.158Z,22.7
2019-01-06T18:26:00.422Z,22.5
2019-01-06T18:31:05.954Z,20.2
2019-01-06T18:36:10.356Z,21.1
2019-01-06T18:41:15.219Z,21.6
2019-01-06T18:46:20.274Z,22
2019-01-06T18:51:25.165Z,22.2
2019-01-06T18:56:30.164Z,22.3
2019-01-06T19:01:36.523Z,22.8
2019-01-06T19:06:41.543Z,22.8
2019-01-06T19:11:45.535Z,22.8
2019-01-06T19:16:50.907Z,22.9
2019-01-06T19:21:56.239Z,22.9
2019-01-06T19:27:01.478Z,22.9
2019-01-06T19:32:06.897Z,22.9
2019-01-06T19:37:12.042Z,22.9
2019-01-06T19:42:17.628Z,22.9
2019-01-06T19:47:23.368Z,22.9
2019-01-06T19:57:32.444Z,23.1
2019-01-06T20:02:37.783Z,23.1
2019-01-06T20:07:43.421Z,23.1
2019-01-06T20:12:48.577Z,23.1
2019-01-06T20:17:54.158Z,23.2
2019-01-06T20:22:59.485Z,23.2
2019-01-06T20:28:05.181Z,23.2
2019-01-06T20:33:10.490Z,23.2
2019-01-06T20:38:15.856Z,23.2
2019-01-06T20:43:21.261Z,23.1
2019-01-06T20:48:26.933Z,23.2
2019-01-06T20:53:32.913Z,23.1
2019-01-06T20:58:38.756Z,23.1
2019-01-06T21:03:44.429Z,23.1
2019-01-06T21:08:50.735Z,23.1
2019-01-06T21:13:56.524Z,23
2019-01-06T21:19:02.881Z,23
2019-01-06T21:24:08.309Z,23
2019-01-06T21:34:17.653Z,22.8
2019-01-06T21:39:23.970Z,22.8
2019-01-06T21:44:29.618Z,22.8
2019-01-06T21:49:35.428Z,22.7
2019-01-06T21:54:40.913Z,22.7
2019-01-06T21:59:46.558Z,22.7
2019-01-06T22:04:51.540Z,22.6
2019-01-06T22:09:55.537Z,22.6
2019-01-06T22:14:59.037Z,22.6
2019-01-06T22:20:04.156Z,22.6
2019-01-06T22:25:09.899Z,22.5
2019-01-06T22:30:15.251Z,22.5
2019-01-06T22:35:19.009Z,22.5
2019-01-06T22:40:25.063Z,22.4
2019-01-06T22:45:30.627Z,22.4
2019-01-06T22:50:36.400Z,22.4
2019-01-06T22:55:41.407Z,22.4
2019-01-06T23:00:47.047Z,22.4
2019-01-06T23:05:52.620Z,22.3
2019-01-06T23:10:58.183Z,22.3
2019-01-06T23:16:03.545Z,22.3
2019-01-06T23:21:09.208Z,22.3
2019-01-06T23:26:14.284Z,22.3
2019-01-06T23:31:19.732Z,22.3
2019-01-06T23:36:25.258Z,22.2
2019-01-06T23:41:30.715Z,22.2
2019-01-06T23:46:34.628Z,22.2
2019-01-06T23:51:39.977Z,22.2
